Time;durP1;ratioP1;P1;durP2;ratioP2;P2;SDS_P1;SDS_P2;PMS_P1;PMS_P2;Temp;Humidity;BMP_temperature;BMP_pressure;BME280_temperature;BME280_humidity;BME280_pressure;Samples;Min_cycle;Max_cycle;Signal;HPM_P1;HPM_P2
2023/03/04 00:00:18;;;;;;;14.30;11.13;;;;;;;4.37;87.87;95752.88;4322884;32;20181;-55
2023/03/04 00:02:47;;;;;;;15.93;10.53;;;;;;;4.35;87.41;95754.19;4336437;32;20325;-50
2023/03/04 00:05:12;;;;;;;10.97;9.97;;;;;;;4.21;88.11;95760.78;4322684;32;20312;-53
2023/03/04 00:07:39;;;;;;;11.27;10.20;;;;;;;4.29;87.97;95758.56;4328197;32;20277;-50
2023/03/04 00:10:07;;;;;;;12.73;11.53;;;;;;;4.32;87.65;95763.31;4334979;32;20316;-52
2023/03/04 00:12:33;;;;;;;7.63;7.07;;;;;;;4.26;87.96;95761.66;4292057;32;20279;-48
2023/03/04 00:15:01;;;;;;;10.43;9.53;;;;;;;4.14;87.73;95756.53;4298571;32;20400;-49
2023/03/04 00:17:30;;;;;;;10.03;9.03;;;;;;;4.17;88.17;95762.31;4328821;32;20333;-51
2023/03/04 00:19:55;;;;;;;9.53;8.73;;;;;;;3.95;88.52;95763.06;4334872;32;20277;-51
2023/03/04 00:22:22;;;;;;;10.07;9.20;;;;;;;3.94;88.91;95766.75;4327751;32;20329;-52
2023/03/04 00:24:48;;;;;;;11.37;10.33;;;;;;;3.94;88.98;95766.75;4312150;32;20248;-55
2023/03/04 00:30:38;;;;;;;9.97;8.67;;;;;;;3.97;88.52;95765.44;4320253;32;20417;-51
2023/03/04 00:33:04;;;;;;;9.17;8.57;;;;;;;3.99;88.38;95772.03;4312783;32;20282;-54
2023/03/04 00:35:31;;;;;;;10.07;9.10;;;;;;;3.68;89.49;95770.00;4318385;32;20294;-48
2023/03/04 00:37:59;;;;;;;8.90;8.07;;;;;;;3.65;90.07;95766.03;4319167;32;20328;-50
2023/03/04 00:40:24;;;;;;;11.83;8.43;;;;;;;3.52;90.31;95770.78;4331782;32;20431;-49
2023/03/04 00:42:51;;;;;;;10.90;9.40;;;;;;;3.38;90.52;95781.56;4327603;32;20278;-53
2023/03/04 00:45:16;;;;;;;10.30;9.27;;;;;;;3.55;90.05;95778.16;4333107;32;20245;-51
2023/03/04 00:47:41;;;;;;;10.70;9.73;;;;;;;3.53;90.32;95765.31;4311236;32;20432;-52
2023/03/04 00:50:09;;;;;;;10.23;9.27;;;;;;;3.68;89.96;95777.87;4321031;32;20288;-51
2023/03/04 00:52:35;;;;;;;11.23;10.03;;;;;;;3.39;90.35;95774.50;4260719;32;20261;-52
2023/03/04 00:55:01;;;;;;;13.07;9.83;;;;;;;3.60;89.72;95770.37;4287580;32;20286;-53
2023/03/04 00:57:28;;;;;;;10.73;9.67;;;;;;;3.71;88.92;95780.03;4312241;32;20311;-55
2023/03/04 00:59:54;;;;;;;8.97;7.77;;;;;;;3.69;89.04;95780.25;4315020;32;20340;-52
2023/03/04 01:02:21;;;;;;;11.83;10.83;;;;;;;3.78;88.79;95767.53;4344428;32;20293;-55
2023/03/04 01:04:46;;;;;;;11.13;10.07;;;;;;;3.59;89.40;95768.78;4326020;32;20290;-50
2023/03/04 01:07:16;;;;;;;11.33;9.77;;;;;;;3.60;89.37;95771.19;4309855;32;20291;-52
2023/03/04 01:09:48;;;;;;;11.70;10.70;;;;;;;3.71;89.04;95764.28;4322616;32;20245;-53
2023/03/04 01:12:14;;;;;;;13.60;10.70;;;;;;;3.75;88.51;95757.50;4346902;32;20313;-50
2023/03/04 01:14:39;;;;;;;10.33;9.37;;;;;;;3.84;88.29;95757.91;4337453;32;20324;-52
2023/03/04 01:17:04;;;;;;;13.43;10.03;;;;;;;3.65;88.56;95762.59;4317967;32;20296;-52
2023/03/04 01:19:31;;;;;;;12.37;10.97;;;;;;;3.52;89.19;95752.44;4334689;32;20216;-51
2023/03/04 01:21:59;;;;;;;9.83;8.90;;;;;;;3.35;89.68;95747.16;4349232;32;20192;-51
2023/03/04 01:24:25;;;;;;;8.90;8.23;;;;;;;3.62;89.18;95747.34;4329388;32;20321;-52
2023/03/04 01:26:51;;;;;;;11.90;10.87;;;;;;;3.55;89.32;95744.06;4314314;32;20314;-53
2023/03/04 01:29:16;;;;;;;12.93;8.20;;;;;;;3.32;89.81;95751.06;4331111;32;20333;-53
2023/03/04 01:31:41;;;;;;;9.60;8.77;;;;;;;3.45;89.81;95753.38;4329239;32;20185;-49
2023/03/04 01:34:08;;;;;;;9.80;8.13;;;;;;;3.76;88.40;95743.34;4316698;32;20248;-53
2023/03/04 01:36:35;;;;;;;8.37;7.70;;;;;;;3.68;88.25;95746.41;4332610;32;20181;-52
2023/03/04 01:39:07;;;;;;;8.67;8.07;;;;;;;3.92;87.44;95742.56;4320469;32;20355;-50
2023/03/04 01:41:34;;;;;;;9.43;8.07;;;;;;;3.91;87.05;95733.09;4306032;32;20302;-50
2023/03/04 01:44:01;;;;;;;7.43;6.90;;;;;;;3.81;87.26;95738.19;4323985;32;20329;-53
2023/03/04 01:46:30;;;;;;;9.93;9.00;;;;;;;3.39;89.16;95735.97;4345911;32;20309;-54
2023/03/04 01:48:58;;;;;;;9.33;7.87;;;;;;;3.55;88.80;95741.44;4301907;32;20305;-53
2023/03/04 01:51:27;;;;;;;10.13;9.23;;;;;;;3.72;87.97;95724.69;4284459;33;20313;-51
2023/03/04 01:53:55;;;;;;;9.93;8.77;;;;;;;3.47;88.74;95732.16;4324742;32;20396;-52
2023/03/04 01:56:37;;;;;;;9.20;8.50;;;;;;;3.68;88.03;95714.91;4303862;33;20279;-51
2023/03/04 01:59:20;;;;;;;12.17;11.03;;;;;;;3.43;88.87;95723.97;4302715;33;20186;-53
2023/03/04 02:01:59;;;;;;;10.53;9.63;;;;;;;3.44;89.15;95719.53;4330906;32;20278;-51
2023/03/04 02:04:30;;;;;;;11.37;10.03;;;;;;;3.52;88.48;95723.59;4315986;32;20281;-51
2023/03/04 02:06:59;;;;;;;10.43;9.43;;;;;;;3.57;88.49;95713.16;4287896;32;20328;-51
2023/03/04 02:09:26;;;;;;;9.80;8.80;;;;;;;3.61;87.85;95707.19;4300709;33;20321;-53
2023/03/04 02:11:55;;;;;;;14.33;11.07;;;;;;;3.63;87.56;95712.22;4316936;32;20282;-48
2023/03/04 02:14:27;;;;;;;9.80;9.03;;;;;;;3.76;87.31;95710.03;4290358;32;20321;-54
2023/03/04 02:16:54;;;;;;;9.73;8.87;;;;;;;3.71;87.07;95712.63;4307595;32;20312;-52
2023/03/04 02:19:46;;;;;;;8.93;8.10;;;;;;;3.83;86.83;95702.00;4290907;32;20347;-52
2023/03/04 02:22:13;;;;;;;11.47;10.27;;;;;;;3.84;86.50;95693.09;4301287;32;20289;-50
2023/03/04 02:25:01;;;;;;;10.40;9.40;;;;;;;3.80;86.48;95699.88;4319716;32;20324;-54
2023/03/04 02:27:27;;;;;;;9.47;8.63;;;;;;;3.66;86.37;95696.78;4317311;32;20302;-53
2023/03/04 02:29:52;;;;;;;10.87;8.87;;;;;;;3.73;86.58;95697.44;4332127;32;20296;-52
2023/03/04 02:32:17;;;;;;;9.37;8.47;;;;;;;3.80;86.73;95690.16;4309699;32;20232;-50
2023/03/04 02:34:51;;;;;;;11.00;9.80;;;;;;;3.72;86.41;95687.16;4326110;32;20194;-53
2023/03/04 02:37:19;;;;;;;9.87;8.80;;;;;;;3.58;87.31;95693.75;4330060;32;20270;-53
2023/03/04 02:39:50;;;;;;;9.97;9.10;;;;;;;3.77;86.75;95693.25;4339233;32;20276;-53
2023/03/04 02:42:17;;;;;;;12.07;9.27;;;;;;;3.87;86.30;95691.81;4335098;32;20282;-52
2023/03/04 02:44:47;;;;;;;9.80;9.10;;;;;;;3.86;85.92;95700.72;4320582;32;20304;-54
2023/03/04 02:47:19;;;;;;;9.60;8.67;;;;;;;3.81;85.97;95701.44;4297965;32;20323;-54
2023/03/04 02:49:45;;;;;;;14.83;8.20;;;;;;;3.83;85.99;95696.75;4331770;32;20282;-63
2023/03/04 02:52:18;;;;;;;8.83;8.07;;;;;;;3.84;85.93;95697.56;4305158;32;20286;-53
2023/03/04 02:54:45;;;;;;;10.07;9.20;;;;;;;3.75;85.86;95700.56;4328720;32;20189;-52
2023/03/04 02:57:13;;;;;;;7.83;7.20;;;;;;;3.91;85.55;95698.19;4314091;32;20321;-51
2023/03/04 02:59:41;;;;;;;6.90;6.37;;;;;;;3.89;85.98;95700.25;4334242;32;20278;-52
2023/03/04 03:02:07;;;;;;;9.13;8.43;;;;;;;3.77;86.31;95695.09;4303062;32;20357;-53
2023/03/04 03:04:36;;;;;;;7.80;7.10;;;;;;;3.49;86.91;95687.34;4318546;32;20292;-50
2023/03/04 03:07:04;;;;;;;9.23;8.43;;;;;;;3.75;86.44;95689.28;4336261;32;20363;-53
2023/03/04 03:09:30;;;;;;;10.73;9.63;;;;;;;3.35;87.52;95695.50;4344335;32;20433;-53
2023/03/04 03:11:56;;;;;;;9.57;8.97;;;;;;;3.60;87.26;95686.44;4325216;32;20300;-53
2023/03/04 03:14:23;;;;;;;9.80;8.97;;;;;;;3.56;86.83;95686.13;4319691;32;20285;-54
2023/03/04 03:16:48;;;;;;;7.40;6.83;;;;;;;3.59;86.70;95684.88;4326925;32;20297;-53
2023/03/04 03:19:15;;;;;;;10.50;9.70;;;;;;;3.60;86.60;95691.69;4341023;32;20332;-51
2023/03/04 03:21:42;;;;;;;7.77;7.07;;;;;;;3.39;87.11;95696.63;4325671;32;20185;-54
2023/03/04 03:24:08;;;;;;;12.40;8.97;;;;;;;3.42;87.74;95693.53;4316358;32;20318;-51
2023/03/04 03:26:35;;;;;;;7.77;7.07;;;;;;;3.29;88.16;95704.34;4327143;32;20278;-52
2023/03/04 03:29:01;;;;;;;9.83;9.07;;;;;;;3.39;87.93;95695.84;4325643;32;20353;-52
2023/03/04 03:31:30;;;;;;;9.07;8.27;;;;;;;3.35;88.59;95711.25;4331088;32;20285;-50
2023/03/04 03:33:57;;;;;;;8.83;8.00;;;;;;;3.18;88.32;95705.22;4336351;32;20229;-50
2023/03/04 03:36:23;;;;;;;8.33;7.60;;;;;;;3.31;88.31;95702.28;4311144;32;20325;-52
2023/03/04 03:38:49;;;;;;;11.13;10.13;;;;;;;3.43;87.93;95700.38;4293680;32;20361;-53
2023/03/04 03:41:14;;;;;;;10.97;10.07;;;;;;;3.24;87.89;95701.66;4328236;32;20281;-51
2023/03/04 03:43:41;;;;;;;9.70;9.00;;;;;;;3.49;87.17;95697.84;4346235;32;20185;-54
2023/03/04 03:46:08;;;;;;;11.10;10.10;;;;;;;3.34;87.75;95703.63;4328671;32;20195;-52
2023/03/04 03:48:34;;;;;;;8.90;8.20;;;;;;;3.33;88.04;95696.78;4309710;32;20324;-52
2023/03/04 03:51:00;;;;;;;8.90;7.90;;;;;;;3.24;88.43;95696.41;4329428;32;20420;-51
2023/03/04 03:53:29;;;;;;;8.50;7.83;;;;;;;3.29;88.14;95698.31;4331175;32;20212;-51
2023/03/04 03:55:55;;;;;;;9.43;8.83;;;;;;;3.04;88.99;95698.69;4319278;32;20329;-50
2023/03/04 03:58:20;;;;;;;8.87;7.93;;;;;;;3.28;88.84;95692.28;4337479;32;20388;-51
2023/03/04 04:00:46;;;;;;;8.93;8.23;;;;;;;3.14;89.43;95698.03;4293938;32;20247;-56
2023/03/04 04:03:14;;;;;;;7.67;6.97;;;;;;;3.22;89.07;95693.22;4336264;32;20262;-53
2023/03/04 04:05:42;;;;;;;10.27;9.33;;;;;;;3.16;89.46;95691.53;4311316;32;20189;-52
2023/03/04 04:08:16;;;;;;;8.77;8.20;;;;;;;3.05;89.61;95693.22;4305061;32;20369;-51
2023/03/04 04:10:43;;;;;;;10.10;9.20;;;;;;;2.74;90.78;95689.25;4302659;32;20348;-52
2023/03/04 04:13:10;;;;;;;8.30;7.63;;;;;;;2.87;90.64;95693.44;4316380;32;20360;-52
2023/03/04 04:15:37;;;;;;;8.07;7.43;;;;;;;3.12;89.92;95685.97;4310532;32;20604;-52
2023/03/04 04:18:06;;;;;;;9.50;8.63;;;;;;;3.15;89.38;95689.94;4313264;32;20379;-54
2023/03/04 04:20:34;;;;;;;7.53;7.07;;;;;;;2.93;89.78;95691.66;4316314;32;20317;-52
2023/03/04 04:23:00;;;;;;;10.70;9.60;;;;;;;2.94;90.09;95688.00;4315859;32;20337;-52
2023/03/04 04:25:25;;;;;;;8.87;8.30;;;;;;;3.00;89.70;95692.31;4346181;32;20281;-51
2023/03/04 04:27:53;;;;;;;8.63;7.83;;;;;;;2.83;90.07;95689.69;4346858;32;20255;-49
2023/03/04 04:30:19;;;;;;;11.13;8.63;;;;;;;2.89;89.52;95693.97;4332751;32;20228;-54
2023/03/04 04:32:48;;;;;;;8.17;7.53;;;;;;;2.66;90.19;95696.72;4280885;33;20310;-52
2023/03/04 04:35:14;;;;;;;7.27;6.77;;;;;;;2.76;89.97;95694.25;4276597;32;20413;-49
2023/03/04 04:37:41;;;;;;;7.63;6.67;;;;;;;2.63;90.08;95697.16;4305495;32;20352;-49
2023/03/04 04:40:10;;;;;;;7.37;6.77;;;;;;;2.56;90.71;95702.53;4322261;32;20305;-53
2023/03/04 04:42:37;;;;;;;8.63;8.03;;;;;;;2.53;90.75;95703.00;4327326;32;20390;-52
2023/03/04 04:45:05;;;;;;;8.43;7.90;;;;;;;2.69;90.21;95694.41;4322434;32;20321;-50
2023/03/04 04:47:31;;;;;;;8.20;7.63;;;;;;;2.50;90.52;95692.97;4311246;32;20293;-51
2023/03/04 04:49:58;;;;;;;9.30;8.40;;;;;;;2.51;90.70;95691.16;4307141;32;20395;-53
2023/03/04 04:52:26;;;;;;;9.30;8.57;;;;;;;2.41;91.21;95689.16;4306199;32;20312;-50
2023/03/04 04:54:53;;;;;;;9.00;7.17;;;;;;;2.45;91.00;95692.91;4305317;32;20325;-51
2023/03/04 04:57:21;;;;;;;7.30;6.67;;;;;;;2.65;89.94;95690.66;4318322;32;20278;-52
2023/03/04 04:59:48;;;;;;;8.17;7.63;;;;;;;2.43;90.95;95689.72;4344105;32;20282;-51
2023/03/04 05:02:19;;;;;;;9.43;8.00;;;;;;;2.42;91.25;95690.75;4328869;32;20340;-52
2023/03/04 05:04:45;;;;;;;7.93;7.13;;;;;;;2.55;90.57;95694.91;4324272;32;20403;-53
2023/03/04 05:07:10;;;;;;;8.33;7.47;;;;;;;2.55;89.86;95693.09;4279538;32;20282;-51
2023/03/04 05:09:36;;;;;;;8.30;7.70;;;;;;;2.36;90.87;95699.53;4301057;32;20254;-53
2023/03/04 05:12:03;;;;;;;8.30;7.70;;;;;;;2.37;91.25;95695.88;4301523;32;20184;-53
2023/03/04 05:14:30;;;;;;;8.23;7.83;;;;;;;2.47;90.87;95701.34;4320694;32;20328;-53
2023/03/04 05:16:56;;;;;;;9.47;7.60;;;;;;;2.61;90.29;95701.84;4283906;32;20624;-50
2023/03/04 05:19:26;;;;;;;10.50;8.57;;;;;;;2.53;90.04;95694.34;4318745;32;20416;-51
2023/03/04 05:21:51;;;;;;;7.90;7.40;;;;;;;2.35;90.59;95703.97;4331776;32;20332;-51
2023/03/04 05:24:16;;;;;;;7.90;7.37;;;;;;;2.47;90.37;95706.56;4332042;32;20336;-52
2023/03/04 05:26:43;;;;;;;10.00;8.57;;;;;;;2.45;90.60;95692.91;4331870;32;20312;-50
2023/03/04 05:29:09;;;;;;;5.93;5.57;;;;;;;2.52;90.31;95698.00;4312388;32;20224;-54
2023/03/04 05:31:34;;;;;;;7.13;6.53;;;;;;;2.15;91.49;95700.16;4324930;32;20379;-53
2023/03/04 05:34:01;;;;;;;9.77;8.70;;;;;;;2.21;91.57;95696.63;4328575;32;20240;-49
2023/03/04 05:36:28;;;;;;;8.70;7.97;;;;;;;2.48;90.71;95700.31;4292993;32;20223;-54
2023/03/04 05:38:55;;;;;;;7.77;7.00;;;;;;;2.80;89.12;95698.00;4330761;32;20364;-52
2023/03/04 05:41:24;;;;;;;9.17;8.53;;;;;;;2.59;89.72;95699.44;4315984;32;20336;-53
2023/03/04 05:43:51;;;;;;;7.47;6.87;;;;;;;2.44;90.12;95696.56;4318803;32;20345;-52
2023/03/04 05:46:24;;;;;;;6.93;6.40;;;;;;;2.57;89.55;95703.34;4328774;32;20325;-51
2023/03/04 05:48:56;;;;;;;8.83;8.13;;;;;;;2.75;89.27;95701.31;4327259;32;20321;-52
2023/03/04 05:51:27;;;;;;;6.57;6.17;;;;;;;2.66;89.02;95699.31;4327945;32;20322;-54
2023/03/04 05:53:53;;;;;;;7.50;7.00;;;;;;;2.44;89.53;95699.19;4324008;32;20274;-54
2023/03/04 05:56:20;;;;;;;6.30;5.97;;;;;;;2.66;89.34;95707.97;4329654;32;20372;-53
2023/03/04 05:58:48;;;;;;;6.13;5.83;;;;;;;2.57;89.58;95703.34;4320952;32;20292;-51
2023/03/04 06:01:16;;;;;;;9.53;8.73;;;;;;;2.36;90.15;95708.19;4301759;33;20435;-52
2023/03/04 06:03:47;;;;;;;7.30;6.63;;;;;;;2.45;89.88;95708.63;4319681;32;20332;-53
2023/03/04 06:06:13;;;;;;;7.23;6.73;;;;;;;2.56;89.40;95712.22;4314352;32;20316;-54
2023/03/04 06:08:40;;;;;;;5.73;5.00;;;;;;;2.34;90.02;95714.66;4348091;32;20321;-53
2023/03/04 06:11:07;;;;;;;10.33;9.43;;;;;;;2.33;90.42;95719.09;4327859;32;20378;-52
2023/03/04 06:13:35;;;;;;;9.70;8.90;;;;;;;2.42;89.96;95715.09;4325622;32;20328;-53
2023/03/04 06:16:02;;;;;;;8.07;7.43;;;;;;;2.45;89.70;95720.91;4342048;32;20358;-52
2023/03/04 06:18:28;;;;;;;5.23;4.90;;;;;;;2.50;89.70;95719.16;4321600;32;20340;-52
2023/03/04 06:20:59;;;;;;;9.57;8.67;;;;;;;2.50;90.07;95723.59;4294162;32;20322;-50
2023/03/04 06:23:28;;;;;;;8.00;7.50;;;;;;;2.56;89.21;95727.91;4318036;32;20276;-52
2023/03/04 06:25:57;;;;;;;5.57;5.20;;;;;;;2.42;89.52;95725.59;4314296;32;20306;-48
2023/03/04 06:28:24;;;;;;;8.30;7.60;;;;;;;2.42;89.88;95732.63;4314676;32;20332;-51
2023/03/04 06:30:55;;;;;;;7.13;6.67;;;;;;;2.44;89.70;95740.25;4348077;32;20301;-53
2023/03/04 06:33:22;;;;;;;7.00;6.37;;;;;;;2.19;90.76;95738.72;4324015;32;20321;-53
2023/03/04 06:35:52;;;;;;;10.03;8.53;;;;;;;2.31;90.65;95742.09;4306070;32;20351;-51
2023/03/04 06:38:17;;;;;;;8.93;8.33;;;;;;;2.23;90.70;95745.09;4307631;32;20289;-52
2023/03/04 06:40:44;;;;;;;8.13;7.40;;;;;;;2.34;90.74;95740.84;4337600;32;20277;-54
2023/03/04 06:43:14;;;;;;;6.27;5.77;;;;;;;2.38;90.06;95739.34;4350161;32;20221;-52
2023/03/04 06:45:40;;;;;;;5.70;5.30;;;;;;;2.49;89.53;95740.37;4337459;32;20421;-52
2023/03/04 06:48:07;;;;;;;6.73;6.13;;;;;;;2.42;90.12;95743.09;4335542;32;20308;-51
2023/03/04 06:50:35;;;;;;;9.33;8.47;;;;;;;2.35;89.90;95742.44;4334538;32;20324;-54
2023/03/04 06:53:01;;;;;;;7.90;7.37;;;;;;;2.41;90.15;95739.69;4307771;32;20348;-54
2023/03/04 06:55:28;;;;;;;6.40;5.97;;;;;;;2.48;89.67;95742.19;4345630;32;20273;-54
2023/03/04 06:57:55;;;;;;;7.43;6.70;;;;;;;2.45;90.11;95739.25;4308737;32;20341;-52
2023/03/04 07:00:25;;;;;;;5.90;5.57;;;;;;;2.41;89.86;95747.56;4331375;32;20371;-55
2023/03/04 07:02:53;;;;;;;7.10;6.23;;;;;;;2.35;90.26;95753.69;4318222;32;20360;-52
2023/03/04 07:05:20;;;;;;;6.03;5.67;;;;;;;2.51;90.05;95752.19;4308190;32;20313;-51
2023/03/04 07:07:52;;;;;;;7.50;7.00;;;;;;;2.46;90.17;95757.34;4329748;32;20289;-52
2023/03/04 07:10:19;;;;;;;6.67;6.27;;;;;;;2.56;90.07;95754.09;4319060;32;20317;-48
2023/03/04 07:12:50;;;;;;;7.07;6.43;;;;;;;2.71;89.62;95752.56;4324853;32;20292;-53
2023/03/04 07:15:16;;;;;;;10.30;6.73;;;;;;;2.86;89.39;95757.31;4333408;32;20322;-56
2023/03/04 07:17:45;;;;;;;6.73;6.33;;;;;;;2.82;89.00;95752.78;4311803;32;20306;-52
2023/03/04 07:20:13;;;;;;;8.90;8.20;;;;;;;2.86;88.92;95759.16;4291366;32;20367;-52
2023/03/04 07:22:47;;;;;;;8.30;7.57;;;;;;;2.93;89.02;95750.09;4328175;32;20338;-52
2023/03/04 07:25:15;;;;;;;8.97;8.27;;;;;;;2.76;89.54;95752.69;4329315;32;20324;-51
2023/03/04 07:27:45;;;;;;;9.30;7.80;;;;;;;2.89;89.13;95762.09;4332786;32;20286;-51
2023/03/04 07:30:11;;;;;;;8.63;7.83;;;;;;;3.06;88.82;95754.28;4330653;32;20322;-50
2023/03/04 07:32:37;;;;;;;9.90;9.07;;;;;;;3.09;88.15;95759.06;4317489;32;20435;-53
2023/03/04 07:35:03;;;;;;;7.80;7.20;;;;;;;2.96;89.21;95764.56;4323627;32;20313;-48
2023/03/04 07:37:29;;;;;;;14.70;8.90;;;;;;;3.08;88.57;95767.94;4311405;32;20249;-52
2023/03/04 07:39:57;;;;;;;7.87;7.07;;;;;;;3.08;88.67;95770.56;4339362;32;20277;-51
2023/03/04 07:42:23;;;;;;;7.40;6.37;;;;;;;3.17;88.33;95773.59;4337374;32;20210;-53
2023/03/04 07:44:49;;;;;;;8.10;7.40;;;;;;;3.02;88.66;95774.91;4334336;32;20278;-52
2023/03/04 07:47:15;;;;;;;12.53;10.60;;;;;;;3.07;89.05;95776.84;4311581;32;20282;-49
2023/03/04 07:49:44;;;;;;;8.73;7.93;;;;;;;3.20;88.79;95779.16;4290018;32;20337;-49
2023/03/04 07:52:13;;;;;;;13.17;8.30;;;;;;;3.24;88.69;95785.53;4333462;32;20224;-52
2023/03/04 07:54:40;;;;;;;9.47;8.67;;;;;;;3.33;88.27;95780.69;4327540;32;20364;-51
2023/03/04 07:57:07;;;;;;;8.90;8.07;;;;;;;3.34;87.98;95783.06;4322040;32;23639;-51
2023/03/04 07:59:33;;;;;;;10.73;9.93;;;;;;;3.59;86.89;95784.53;4325841;32;20344;-55
2023/03/04 08:01:58;;;;;;;8.30;7.67;;;;;;;3.60;86.54;95791.38;4317388;32;20313;-51
2023/03/04 08:04:27;;;;;;;8.07;7.30;;;;;;;3.75;85.59;95792.41;4321237;32;20339;-52
2023/03/04 08:06:57;;;;;;;7.37;6.73;;;;;;;3.71;85.84;95793.13;4320177;32;20221;-54
2023/03/04 08:09:24;;;;;;;8.73;8.07;;;;;;;3.73;85.71;95793.69;4317107;32;20317;-49
2023/03/04 08:11:50;;;;;;;8.60;7.90;;;;;;;3.71;85.66;95798.38;4338426;32;20329;-51
2023/03/04 08:14:16;;;;;;;13.40;9.90;;;;;;;3.83;85.54;95796.47;4327614;32;20331;-54
2023/03/04 08:16:45;;;;;;;8.67;7.90;;;;;;;3.82;84.66;95799.31;4289982;32;20333;-52
2023/03/04 08:19:11;;;;;;;8.60;7.87;;;;;;;3.61;85.14;95801.63;4292141;32;20201;-52
2023/03/04 08:21:36;;;;;;;8.13;7.43;;;;;;;3.70;85.82;95802.03;4326851;32;20396;-51
2023/03/04 08:24:06;;;;;;;10.83;10.00;;;;;;;3.85;84.38;95804.09;4337613;32;20292;-53
2023/03/04 08:26:40;;;;;;;7.90;7.17;;;;;;;3.82;84.48;95805.38;4318054;32;20301;-53
2023/03/04 08:29:05;;;;;;;11.27;7.87;;;;;;;3.79;84.64;95803.22;4331825;32;20290;-53
2023/03/04 08:31:33;;;;;;;10.70;9.60;;;;;;;3.84;84.04;95805.12;4279340;32;20420;-52
2023/03/04 08:33:58;;;;;;;8.53;7.90;;;;;;;3.87;83.62;95796.78;4296481;32;20221;-55
2023/03/04 08:36:26;;;;;;;8.37;7.43;;;;;;;3.91;83.64;95790.84;4315423;32;20289;-52
2023/03/04 08:38:52;;;;;;;9.20;8.10;;;;;;;4.04;83.12;95798.38;4316701;32;20284;-52
2023/03/04 08:41:19;;;;;;;13.33;12.03;;;;;;;4.04;82.99;95798.38;4326167;32;20313;-51
2023/03/04 08:43:48;;;;;;;8.03;7.27;;;;;;;3.91;83.40;95790.03;4295056;32;20322;-51
2023/03/04 08:46:14;;;;;;;9.53;8.47;;;;;;;4.07;82.79;95794.47;4301577;32;20282;-55
2023/03/04 08:48:44;;;;;;;9.20;8.23;;;;;;;4.05;82.71;95797.34;4325168;32;20332;-53
2023/03/04 08:51:14;;;;;;;8.77;8.10;;;;;;;4.08;82.58;95796.84;4279216;33;20377;-53
2023/03/04 08:53:42;;;;;;;8.37;7.60;;;;;;;4.21;82.09;95794.91;4293441;33;20476;-53
2023/03/04 08:56:12;;;;;;;10.30;9.13;;;;;;;4.23;81.90;95795.47;4334590;32;20336;-51
2023/03/04 08:58:38;;;;;;;9.30;8.37;;;;;;;4.33;80.97;95790.38;4324624;32;20401;-52
2023/03/04 09:01:06;;;;;;;11.07;8.93;;;;;;;4.37;80.69;95802.75;4310127;32;20329;-52
2023/03/04 09:03:31;;;;;;;8.77;8.13;;;;;;;4.46;80.29;95797.91;4309384;32;20228;-49
2023/03/04 09:05:57;;;;;;;9.20;8.33;;;;;;;4.34;80.92;95797.22;4317616;32;20360;-53
2023/03/04 09:08:24;;;;;;;7.93;7.33;;;;;;;4.46;80.76;95803.16;4313579;32;20190;-51
2023/03/04 09:10:53;;;;;;;11.30;7.87;;;;;;;4.51;80.08;95800.59;4315298;32;20309;-54
2023/03/04 09:13:18;;;;;;;9.73;8.23;;;;;;;4.27;80.45;95799.22;4317261;32;20320;-48
2023/03/04 09:15:48;;;;;;;8.80;8.17;;;;;;;4.29;80.71;95799.78;4317984;32;20342;-51
2023/03/04 09:18:15;;;;;;;8.53;7.03;;;;;;;4.29;80.29;95789.28;4325102;32;20237;-53
2023/03/04 09:20:43;;;;;;;6.67;6.27;;;;;;;4.48;79.98;95790.56;4302876;32;20383;-53
2023/03/04 09:23:10;;;;;;;7.73;7.13;;;;;;;4.45;79.76;95783.19;4313672;32;20290;-52
2023/03/04 09:25:38;;;;;;;9.00;8.13;;;;;;;4.45;80.45;95783.19;4321600;32;20383;-52
2023/03/04 09:28:05;;;;;;;9.47;6.93;;;;;;;4.69;79.17;95784.53;4308124;32;20312;-48
2023/03/04 09:30:32;;;;;;;10.47;8.00;;;;;;;4.61;78.47;95779.69;4320079;32;20310;-54
2023/03/04 09:33:00;;;;;;;9.30;7.70;;;;;;;4.74;77.47;95779.34;4317587;32;20278;-51
2023/03/04 09:35:28;;;;;;;7.60;6.63;;;;;;;4.71;76.34;95774.59;4326499;32;20356;-53
2023/03/04 09:37:56;;;;;;;8.37;7.63;;;;;;;4.79;76.88;95778.59;4327496;32;20305;-53
2023/03/04 09:40:31;;;;;;;5.20;4.90;;;;;;;4.86;76.00;95781.06;4332435;32;20312;-53
2023/03/04 09:43:02;;;;;;;6.83;5.47;;;;;;;4.89;75.32;95780.56;4304054;32;20347;-55
2023/03/04 09:45:43;;;;;;;5.70;5.30;;;;;;;4.91;73.54;95786.37;4328787;32;20309;-53
2023/03/04 09:48:12;;;;;;;6.40;5.90;;;;;;;4.87;71.97;95780.00;4304310;32;20325;-52
2023/03/04 09:50:43;;;;;;;5.27;4.90;;;;;;;4.92;71.86;95780.06;4343527;32;20321;-52
2023/03/04 09:53:47;;;;;;;6.67;6.27;;;;;;;4.99;72.37;95778.06;4329146;32;20336;-50
2023/03/04 09:56:13;;;;;;;8.67;6.47;;;;;;;4.95;72.78;95776.97;4296357;33;20340;-52
2023/03/04 09:59:03;;;;;;;5.47;5.07;;;;;;;5.01;71.24;95781.22;4321614;32;20379;-53
2023/03/04 10:01:43;;;;;;;6.30;5.93;;;;;;;4.97;71.12;95778.31;4291229;32;20194;-53
2023/03/04 10:04:14;;;;;;;7.30;6.23;;;;;;;5.01;72.36;95775.94;4313540;32;20383;-55
2023/03/04 10:06:41;;;;;;;6.07;5.53;;;;;;;5.02;73.04;95769.66;4295822;33;20401;-50
2023/03/04 10:09:17;;;;;;;9.57;6.17;;;;;;;4.94;73.35;95765.66;4282494;32;20359;-55
2023/03/04 10:11:47;;;;;;;6.30;5.83;;;;;;;5.07;73.30;95764.47;4318848;32;20278;-55
2023/03/04 10:14:23;;;;;;;9.70;7.30;;;;;;;5.14;73.40;95762.44;4314886;33;20325;-55
2023/03/04 10:17:16;;;;;;;5.83;5.30;;;;;;;5.45;73.28;95758.25;4303355;32;20337;-51
2023/03/04 10:20:00;;;;;;;6.20;5.70;;;;;;;5.50;72.59;95766.97;4304756;32;20336;-53
2023/03/04 10:22:37;;;;;;;6.87;5.73;;;;;;;5.58;72.19;95755.22;4315435;32;20374;-51
2023/03/04 10:25:27;;;;;;;6.63;5.57;;;;;;;5.61;72.90;95748.66;4322348;32;20316;-54
2023/03/04 10:28:09;;;;;;;6.10;5.60;;;;;;;5.82;72.95;95747.75;4314916;32;20292;-52
2023/03/04 10:30:51;;;;;;;7.03;6.43;;;;;;;6.02;70.89;95750.59;4327941;32;20344;-51
2023/03/04 10:33:29;;;;;;;11.17;8.10;;;;;;;6.08;71.57;95746.91;4276058;32;20314;-52
2023/03/04 10:35:57;;;;;;;7.17;6.53;;;;;;;5.99;70.96;95751.09;4319925;32;20313;-55
2023/03/04 10:38:25;;;;;;;6.73;6.07;;;;;;;6.17;70.99;95744.59;4323784;32;20320;-52
2023/03/04 10:40:57;;;;;;;7.67;6.87;;;;;;;6.15;72.50;95742.22;4256703;32;20280;-54
2023/03/04 10:43:24;;;;;;;7.23;6.67;;;;;;;6.03;72.29;95740.81;4291787;32;20286;-55
2023/03/04 10:45:56;;;;;;;13.57;7.10;;;;;;;6.22;71.72;95738.59;4317555;32;20282;-53
2023/03/04 10:48:24;;;;;;;5.83;5.43;;;;;;;6.43;70.67;95740.28;4339219;32;20345;-53
2023/03/04 10:50:49;;;;;;;7.60;7.00;;;;;;;6.53;71.09;95730.56;4324910;32;20288;-52
2023/03/04 10:53:32;;;;;;;6.73;6.00;;;;;;;6.49;70.09;95728.69;4325393;32;20271;-53
2023/03/04 10:55:58;;;;;;;7.70;5.77;;;;;;;6.68;68.46;95729.03;4275901;32;20189;-52
2023/03/04 10:58:24;;;;;;;8.87;5.90;;;;;;;6.84;68.64;95726.19;4328370;32;20305;-54
2023/03/04 11:01:03;;;;;;;5.50;5.10;;;;;;;6.73;69.73;95724.56;4337592;32;20317;-54
2023/03/04 11:03:36;;;;;;;21.40;6.50;;;;;;;6.75;67.41;95716.41;4342905;32;20281;-54
2023/03/04 11:06:13;;;;;;;8.23;5.63;;;;;;;6.83;66.36;95719.34;4298067;32;20318;-52
2023/03/04 11:08:41;;;;;;;7.80;6.43;;;;;;;6.82;66.24;95720.41;4334418;32;20281;-52
2023/03/04 11:11:26;;;;;;;5.40;5.10;;;;;;;6.75;66.81;95719.03;4305562;32;20294;-53
2023/03/04 11:13:56;;;;;;;4.97;4.57;;;;;;;6.86;65.87;95718.81;4347026;32;20314;-53
2023/03/04 11:16:27;;;;;;;6.60;6.10;;;;;;;7.02;66.61;95721.50;4318823;32;20326;-54
2023/03/04 11:19:02;;;;;;;7.37;5.57;;;;;;;7.05;65.78;95716.50;4324858;32;20289;-51
2023/03/04 11:21:30;;;;;;;7.80;6.03;;;;;;;7.11;64.89;95717.28;4317638;32;20357;-52
2023/03/04 11:24:00;;;;;;;4.67;4.37;;;;;;;6.99;65.78;95714.09;4333926;32;20281;-52
2023/03/04 11:26:31;;;;;;;5.83;5.40;;;;;;;7.26;65.52;95706.78;4331431;32;20274;-54
2023/03/04 11:29:19;;;;;;;6.03;5.63;;;;;;;7.20;65.05;95713.09;4345424;32;20277;-53
2023/03/04 11:32:00;;;;;;;6.33;5.80;;;;;;;7.43;65.37;95717.87;4343932;32;20349;-50
2023/03/04 11:34:43;;;;;;;5.03;4.70;;;;;;;7.37;64.18;95716.28;4340880;32;20286;-53
2023/03/04 11:37:17;;;;;;;6.20;5.80;;;;;;;7.24;64.92;95725.50;4345030;32;20297;-51
2023/03/04 11:40:17;;;;;;;7.80;7.03;;;;;;;7.57;65.42;95712.84;4321586;32;20280;-53
2023/03/04 11:43:22;;;;;;;6.93;5.87;;;;;;;7.41;64.36;95708.63;4306342;32;20325;-53
2023/03/04 11:46:44;;;;;;;5.90;5.47;;;;;;;7.21;64.12;95712.03;4303135;32;20282;-49
2023/03/04 11:49:56;;;;;;;5.73;5.27;;;;;;;7.13;65.92;95708.06;4247188;33;20280;-51
2023/03/04 11:52:37;;;;;;;6.57;6.00;;;;;;;7.32;66.44;95708.34;4333884;32;20420;-51